createdAt,value
2016-04-24T00:00:06.125Z,5.5
2016-04-24T00:00:16.031Z,5.5
2016-04-24T00:00:26.031Z,5.5
2016-04-24T00:00:36.033Z,5.5
2016-04-24T00:00:46.048Z,5.5
2016-04-24T00:00:56.048Z,5.5
2016-04-24T00:01:06.048Z,5.5
2016-04-24T00:01:16.048Z,5.5
2016-04-24T00:01:26.048Z,5.5
2016-04-24T00:01:36.051Z,5.5
2016-04-24T00:01:46.051Z,5.5
2016-04-24T00:01:56.051Z,5.6
2016-04-24T00:02:06.051Z,5.6
2016-04-24T00:02:16.051Z,5.5
2016-04-24T00:02:26.051Z,5.5
2016-04-24T00:02:36.054Z,5.5
2016-04-24T00:02:46.054Z,5.6
2016-04-24T00:02:56.054Z,5.5
2016-04-24T00:03:06.054Z,5.5
2016-04-24T00:03:16.070Z,5.5
2016-04-24T00:03:26.070Z,5.6
2016-04-24T00:03:36.056Z,5.5
2016-04-24T00:03:46.056Z,5.6
2016-04-24T00:03:56.072Z,5.5
2016-04-24T00:04:06.072Z,5.5
2016-04-24T00:04:17.916Z,5.4
2016-04-24T00:04:26.072Z,5.5
2016-04-24T00:04:36.091Z,5.6
2016-04-24T00:04:46.075Z,5.6
2016-04-24T00:04:56.091Z,5.5
2016-04-24T00:05:06.075Z,5.6
2016-04-24T00:05:16.075Z,5.5
2016-04-24T00:05:26.075Z,5.5
2016-04-24T00:05:36.078Z,5.5
2016-04-24T00:05:46.078Z,5.5
2016-04-24T00:05:56.078Z,5.5
2016-04-24T00:06:06.078Z,5.5
2016-04-24T00:06:16.094Z,5.5
2016-04-24T00:06:26.078Z,5.4
2016-04-24T00:06:36.080Z,5.6
2016-04-24T00:06:47.252Z,5.5
2016-04-24T00:06:56.361Z,5.5
2016-04-24T00:07:05.955Z,5.5
2016-04-24T00:07:16.252Z,5.5
2016-04-24T00:07:26.096Z,5.5
2016-04-24T00:07:36.600Z,5.5
2016-04-24T00:07:46.100Z,5.5
2016-04-24T00:07:56.100Z,5.6
2016-04-24T00:08:06.100Z,5.5
2016-04-24T00:08:16.100Z,5.4
2016-04-24T00:08:26.100Z,5.4
2016-04-24T00:08:36.102Z,5.5
2016-04-24T00:08:46.102Z,5.5
2016-04-24T00:08:56.117Z,5.4
2016-04-24T00:09:06.117Z,5.6
2016-04-24T00:09:16.102Z,5.4
2016-04-24T00:09:25.961Z,5.5
2016-04-24T00:09:36.119Z,5.4
2016-04-24T00:09:46.119Z,5.4
2016-04-24T00:09:56.135Z,5.4
2016-04-24T00:10:05.963Z,5.4
2016-04-24T00:10:16.119Z,5.5
2016-04-24T00:10:26.119Z,5.5
2016-04-24T00:10:36.123Z,5.4
2016-04-24T00:10:46.123Z,5.5
2016-04-24T00:10:56.123Z,5.5
2016-04-24T00:11:06.123Z,5.5
2016-04-24T00:11:16.123Z,5.5
2016-04-24T00:11:26.123Z,5.6
2016-04-24T00:11:36.125Z,5.5
2016-04-24T00:11:46.157Z,5.5
2016-04-24T00:11:56.157Z,5.6
2016-04-24T00:12:06.125Z,5.5
2016-04-24T00:12:16.125Z,5.6
2016-04-24T00:12:26.125Z,5.5
2016-04-24T00:12:36.143Z,5.6
2016-04-24T00:12:46.143Z,5.5
2016-04-24T00:12:56.143Z,5.4
2016-04-24T00:13:06.143Z,5.5
2016-04-24T00:13:16.143Z,5.5
2016-04-24T00:13:26.143Z,5.6
2016-04-24T00:13:36.147Z,5.6
2016-04-24T00:13:46.147Z,5.6
2016-04-24T00:13:56.147Z,5.6
2016-04-24T00:14:06.147Z,5.5
2016-04-24T00:14:16.147Z,5.5
2016-04-24T00:14:26.147Z,5.5
2016-04-24T00:14:36.165Z,5.6
2016-04-24T00:14:46.149Z,5.6
2016-04-24T00:14:56.149Z,5.6
2016-04-24T00:15:06.165Z,5.6
2016-04-24T00:15:16.165Z,5.6
2016-04-24T00:15:26.165Z,5.6
2016-04-24T00:15:36.152Z,5.5
2016-04-24T00:15:46.168Z,5.6
2016-04-24T00:15:56.168Z,5.6
2016-04-24T00:16:06.168Z,5.5
2016-04-24T00:16:16.168Z,5.4
2016-04-24T00:16:26.168Z,5.6
2016-04-24T00:16:36.170Z,5.5
2016-04-24T00:16:46.170Z,5.6
2016-04-24T00:16:55.420Z,5.6
2016-04-24T00:17:06.170Z,5.6
2016-04-24T00:17:16.185Z,5.5
2016-04-24T00:17:26.185Z,5.5
2016-04-24T00:17:36.188Z,5.6
2016-04-24T00:17:46.173Z,5.4
2016-04-24T00:17:56.188Z,5.5
2016-04-24T00:18:06.188Z,5.6
2016-04-24T00:18:16.188Z,5.6
2016-04-24T00:18:26.188Z,5.4
2016-04-24T00:18:36.191Z,5.5
2016-04-24T00:18:46.191Z,5.6
2016-04-24T00:18:56.191Z,5.5
2016-04-24T00:19:06.191Z,5.6
2016-04-24T00:19:16.191Z,5.5
2016-04-24T00:19:26.191Z,5.6
2016-04-24T00:19:36.193Z,5.5
2016-04-24T00:19:46.193Z,5.6
2016-04-24T00:19:56.053Z,5.5
2016-04-24T00:20:10.099Z,5.4
2016-04-24T00:20:20.037Z,5.4
2016-04-24T00:20:30.037Z,5.4
2016-04-24T00:20:40.056Z,5.5
2016-04-24T00:20:50.056Z,5.6
2016-04-24T00:21:00.056Z,5.6
2016-04-24T00:21:10.056Z,5.6
2016-04-24T00:21:20.056Z,5.5
2016-04-24T00:21:30.056Z,5.5
2016-04-24T00:21:40.059Z,5.5
2016-04-24T00:21:50.059Z,5.5
2016-04-24T00:22:00.074Z,5.6
2016-04-24T00:22:10.090Z,5.6
2016-04-24T00:22:19.980Z,5.5
2016-04-24T00:22:30.059Z,5.5
2016-04-24T00:22:39.920Z,5.6
2016-04-24T00:22:50.295Z,5.6
2016-04-24T00:23:00.076Z,5.5
2016-04-24T00:23:10.076Z,5.6
2016-04-24T00:23:20.061Z,5.6
2016-04-24T00:23:30.076Z,5.6
2016-04-24T00:23:40.080Z,5.6
2016-04-24T00:23:50.080Z,5.6
2016-04-24T00:24:00.080Z,5.5
2016-04-24T00:24:10.080Z,5.6
2016-04-24T00:24:20.080Z,5.5
2016-04-24T00:24:30.080Z,5.5
2016-04-24T00:24:40.082Z,5.6
2016-04-24T00:24:50.098Z,5.6
2016-04-24T00:25:00.082Z,5.6
2016-04-24T00:25:10.082Z,5.6
2016-04-24T00:25:20.082Z,5.6
2016-04-24T00:25:30.082Z,5.6
2016-04-24T00:25:40.084Z,5.6
2016-04-24T00:25:50.100Z,5.6
2016-04-24T00:26:00.100Z,5.7
2016-04-24T00:26:10.100Z,5.7
2016-04-24T00:26:20.100Z,5.6
2016-04-24T00:26:30.100Z,5.6
2016-04-24T00:26:40.104Z,5.6
2016-04-24T00:26:50.104Z,5.6
2016-04-24T00:27:00.104Z,5.7
2016-04-24T00:27:10.104Z,5.7
2016-04-24T00:27:20.104Z,5.6
2016-04-24T00:27:30.104Z,5.6
2016-04-24T00:27:40.106Z,5.6
2016-04-24T00:27:50.106Z,5.7
2016-04-24T00:28:00.106Z,5.6
2016-04-24T00:28:10.106Z,5.7
2016-04-24T00:28:20.106Z,5.8
2016-04-24T00:28:30.106Z,5.6
2016-04-24T00:28:40.108Z,5.7
2016-04-24T00:28:50.108Z,5.6
2016-04-24T00:29:00.123Z,5.7
2016-04-24T00:29:10.123Z,5.6
2016-04-24T00:29:20.123Z,5.7
2016-04-24T00:29:30.123Z,5.6
2016-04-24T00:29:40.127Z,5.7
2016-04-24T00:29:50.127Z,5.6
2016-04-24T00:30:00.127Z,5.7
2016-04-24T00:30:10.127Z,5.7
2016-04-24T00:30:20.127Z,5.7
2016-04-24T00:30:30.127Z,5.7
2016-04-24T00:30:40.129Z,5.7
2016-04-24T00:30:50.129Z,5.7
2016-04-24T00:31:00.129Z,5.7
2016-04-24T00:31:10.129Z,5.7
2016-04-24T00:31:21.833Z,5.6
2016-04-24T00:31:30.426Z,5.7
2016-04-24T00:31:40.382Z,5.6
2016-04-24T00:31:50.382Z,5.6
2016-04-24T00:32:00.382Z,5.7
2016-04-24T00:32:10.382Z,5.7
2016-04-24T00:32:20.398Z,5.7
2016-04-24T00:32:30.382Z,5.7
2016-04-24T00:32:40.400Z,5.7
2016-04-24T00:32:50.400Z,5.7
2016-04-24T00:33:00.400Z,5.7
2016-04-24T00:33:10.400Z,5.6
2016-04-24T00:33:20.400Z,5.7
2016-04-24T00:33:30.400Z,5.7
2016-04-24T00:33:40.403Z,5.7
2016-04-24T00:33:50.403Z,5.8
2016-04-24T00:34:00.419Z,5.7
2016-04-24T00:34:10.403Z,5.7
2016-04-24T00:34:20.403Z,5.7
2016-04-24T00:34:30.403Z,5.7
2016-04-24T00:34:40.406Z,5.8
2016-04-24T00:34:50.406Z,5.7
2016-04-24T00:35:00.406Z,5.8
2016-04-24T00:35:10.422Z,5.7
2016-04-24T00:35:20.422Z,5.8
2016-04-24T00:35:30.422Z,5.7
2016-04-24T00:35:40.424Z,5.7
2016-04-24T00:35:50.424Z,5.8
2016-04-24T00:36:00.424Z,5.7
2016-04-24T00:36:10.439Z,5.7
2016-04-24T00:36:21.642Z,5.7
2016-04-24T00:36:30.424Z,5.7
2016-04-24T00:36:40.427Z,5.7
2016-04-24T00:36:50.427Z,5.7
2016-04-24T00:37:00.427Z,5.7
2016-04-24T00:37:10.552Z,5.7
2016-04-24T00:37:20.286Z,5.8
2016-04-24T00:37:30.427Z,5.7
2016-04-24T00:37:40.742Z,5.7
2016-04-24T00:37:50.430Z,5.7
2016-04-24T00:38:01.211Z,5.8
2016-04-24T00:38:10.430Z,5.7
2016-04-24T00:38:20.430Z,5.8
2016-04-24T00:38:30.445Z,5.8
2016-04-24T00:38:40.447Z,5.7
2016-04-24T00:38:50.447Z,5.8
2016-04-24T00:39:00.447Z,5.7
2016-04-24T00:39:10.447Z,5.8
2016-04-24T00:39:20.447Z,5.8
2016-04-24T00:39:30.447Z,5.8
2016-04-24T00:39:40.451Z,5.8
2016-04-24T00:39:50.451Z,5.7
2016-04-24T00:40:00.451Z,5.7
2016-04-24T00:40:10.451Z,5.7
2016-04-24T00:40:20.451Z,5.7
2016-04-24T00:40:30.451Z,5.8
2016-04-24T00:40:40.453Z,5.8
2016-04-24T00:40:50.453Z,5.8
2016-04-24T00:41:00.469Z,5.7
2016-04-24T00:41:10.469Z,5.7
2016-04-24T00:41:20.469Z,5.7
2016-04-24T00:41:30.469Z,5.7
2016-04-24T00:41:40.471Z,5.7
2016-04-24T00:41:50.471Z,5.7
2016-04-24T00:42:00.471Z,5.8
2016-04-24T00:42:10.471Z,5.7
2016-04-24T00:42:20.471Z,5.8
2016-04-24T00:42:30.471Z,5.8
2016-04-24T00:42:40.475Z,5.8
2016-04-24T00:42:50.475Z,5.7
2016-04-24T00:43:00.475Z,5.7
2016-04-24T00:43:10.475Z,5.8
2016-04-24T00:43:20.491Z,5.7
2016-04-24T00:43:30.475Z,5.7
2016-04-24T00:43:40.493Z,5.8
2016-04-24T00:43:50.477Z,5.8
2016-04-24T00:44:00.493Z,5.7
2016-04-24T00:44:10.493Z,5.7
2016-04-24T00:44:20.493Z,5.8
2016-04-24T00:44:30.493Z,5.8
2016-04-24T00:44:40.495Z,5.8
2016-04-24T00:44:50.495Z,5.7
2016-04-24T00:45:00.495Z,5.8
2016-04-24T00:45:10.495Z,5.8
2016-04-24T00:45:20.495Z,5.7
2016-04-24T00:45:30.495Z,5.8
2016-04-24T00:45:40.499Z,5.8
2016-04-24T00:45:50.514Z,5.7
2016-04-24T00:46:00.514Z,5.7
2016-04-24T00:46:10.499Z,5.8
2016-04-24T00:46:20.358Z,5.8
2016-04-24T00:46:34.657Z,5.8
2016-04-24T00:46:40.360Z,5.7
2016-04-24T00:46:50.516Z,5.7
2016-04-24T00:47:00.516Z,5.8
2016-04-24T00:47:10.516Z,5.8
2016-04-24T00:47:20.516Z,5.7
2016-04-24T00:47:30.516Z,5.7
2016-04-24T00:47:40.519Z,5.8
2016-04-24T00:47:50.519Z,5.8
2016-04-24T00:48:00.535Z,5.8
2016-04-24T00:48:10.519Z,5.8
2016-04-24T00:48:20.519Z,5.8
2016-04-24T00:48:30.519Z,5.8
2016-04-24T00:48:40.521Z,5.8
2016-04-24T00:48:50.521Z,5.8
2016-04-24T00:49:00.521Z,5.8
2016-04-24T00:49:10.537Z,5.8
2016-04-24T00:49:20.537Z,5.8
2016-04-24T00:49:30.537Z,5.8
2016-04-24T00:49:40.540Z,5.8
2016-04-24T00:49:50.540Z,5.8
2016-04-24T00:50:00.540Z,5.8
2016-04-24T00:50:10.540Z,5.8
2016-04-24T00:50:20.540Z,5.8
2016-04-24T00:50:30.540Z,5.8
2016-04-24T00:50:40.543Z,5.7
2016-04-24T00:50:50.543Z,5.8
2016-04-24T00:51:00.543Z,5.8
2016-04-24T00:51:10.543Z,5.8
2016-04-24T00:51:20.652Z,5.8
2016-04-24T00:51:30.558Z,5.8
2016-04-24T00:51:40.545Z,5.7
2016-04-24T00:51:50.560Z,5.8
2016-04-24T00:52:00.404Z,5.7
2016-04-24T00:52:10.404Z,5.7
2016-04-24T00:52:20.623Z,5.8
2016-04-24T00:52:30.560Z,5.8
2016-04-24T00:52:40.907Z,5.8
2016-04-24T00:52:50.563Z,5.7
2016-04-24T00:53:00.563Z,5.8
2016-04-24T00:53:10.563Z,5.7
2016-04-24T00:53:20.563Z,5.8
2016-04-24T00:53:30.563Z,5.8
2016-04-24T00:53:40.566Z,5.8
2016-04-24T00:53:50.566Z,5.8
2016-04-24T00:54:00.566Z,5.7
2016-04-24T00:54:10.566Z,5.7
2016-04-24T00:54:20.582Z,5.7
2016-04-24T00:54:30.566Z,5.7
2016-04-24T00:54:40.584Z,5.8
2016-04-24T00:54:50.568Z,5.8
2016-04-24T00:55:00.584Z,5.8
2016-04-24T00:55:10.584Z,5.7
2016-04-24T00:55:20.584Z,5.7
2016-04-24T00:55:30.600Z,5.7
2016-04-24T00:55:40.588Z,5.7
2016-04-24T00:55:50.588Z,5.7
2016-04-24T00:56:00.588Z,5.7
2016-04-24T00:56:10.588Z,5.8
2016-04-24T00:56:20.588Z,5.7
2016-04-24T00:56:31.072Z,5.7
2016-04-24T00:56:40.590Z,5.7
2016-04-24T00:56:50.590Z,5.7
2016-04-24T00:57:00.590Z,5.7
2016-04-24T00:57:10.606Z,5.7
2016-04-24T00:57:20.606Z,5.7
2016-04-24T00:57:30.606Z,5.8
2016-04-24T00:57:40.608Z,5.7
2016-04-24T00:57:50.608Z,5.7
2016-04-24T00:58:00.701Z,5.7
2016-04-24T00:58:10.608Z,5.7
2016-04-24T00:58:20.608Z,5.7
2016-04-24T00:58:30.608Z,5.7
2016-04-24T00:58:40.612Z,5.6
2016-04-24T00:58:50.612Z,5.7
2016-04-24T00:59:00.612Z,5.7
2016-04-24T00:59:10.612Z,5.8
2016-04-24T00:59:20.455Z,5.6
2016-04-24T00:59:30.612Z,5.6
2016-04-24T00:59:40.614Z,5.7
2016-04-24T00:59:50.614Z,5.7
2016-04-24T01:00:00.629Z,5.6
2016-04-24T01:00:10.629Z,5.7
2016-04-24T01:00:20.614Z,5.7
2016-04-24T01:00:30.629Z,5.7
2016-04-24T01:00:40.631Z,5.7
2016-04-24T01:00:50.631Z,5.7
2016-04-24T01:01:00.631Z,5.7
2016-04-24T01:01:10.631Z,5.7
2016-04-24T01:01:20.631Z,5.6
2016-04-24T01:01:31.526Z,5.6
2016-04-24T01:01:41.495Z,5.6
2016-04-24T01:01:51.495Z,5.6
2016-04-24T01:02:01.495Z,5.6
2016-04-24T01:02:11.495Z,5.6
2016-04-24T01:02:21.479Z,5.6
2016-04-24T01:02:31.481Z,5.6
2016-04-24T01:02:41.481Z,5.6
2016-04-24T01:02:51.497Z,5.6
2016-04-24T01:03:01.497Z,5.6
2016-04-24T01:03:11.497Z,5.6
2016-04-24T01:03:21.497Z,5.5
2016-04-24T01:03:31.500Z,5.6
2016-04-24T01:03:41.500Z,5.6
2016-04-24T01:03:51.500Z,5.5
2016-04-24T01:04:01.500Z,5.5
2016-04-24T01:04:11.500Z,5.5
2016-04-24T01:04:21.500Z,5.6
2016-04-24T01:04:31.503Z,5.5
2016-04-24T01:04:41.503Z,5.5
2016-04-24T01:04:51.503Z,5.6
2016-04-24T01:05:01.503Z,5.6
2016-04-24T01:05:11.503Z,5.5
2016-04-24T01:05:21.518Z,5.6
2016-04-24T01:05:31.505Z,5.5
2016-04-24T01:05:41.520Z,5.4
2016-04-24T01:05:51.505Z,5.4
2016-04-24T01:06:01.520Z,5.5
2016-04-24T01:06:11.536Z,5.5
2016-04-24T01:06:21.520Z,5.4
2016-04-24T01:06:33.289Z,5.4
2016-04-24T01:06:41.523Z,5.4
2016-04-24T01:06:51.523Z,5.4
2016-04-24T01:07:01.383Z,5.4
2016-04-24T01:07:11.383Z,5.4
2016-04-24T01:07:21.789Z,5.4
2016-04-24T01:07:31.525Z,5.3
2016-04-24T01:07:41.385Z,5.4
2016-04-24T01:07:51.744Z,5.4
2016-04-24T01:08:01.447Z,5.4
2016-04-24T01:08:11.525Z,5.2
2016-04-24T01:08:21.541Z,5.3
2016-04-24T01:08:31.544Z,5.4
2016-04-24T01:08:41.544Z,5.3
2016-04-24T01:08:51.544Z,5.4
2016-04-24T01:09:01.544Z,5.4
2016-04-24T01:09:11.544Z,5.2
2016-04-24T01:09:21.544Z,5.2
2016-04-24T01:09:31.563Z,5.3
2016-04-24T01:09:41.547Z,5.3
2016-04-24T01:09:51.547Z,5.3
2016-04-24T01:10:01.563Z,5.3
2016-04-24T01:10:11.547Z,5.2
2016-04-24T01:10:21.547Z,5.3
2016-04-24T01:10:31.565Z,5.3
2016-04-24T01:10:41.549Z,5.3
2016-04-24T01:10:51.549Z,5.2
2016-04-24T01:11:01.549Z,5.2
2016-04-24T01:11:11.565Z,5.2
2016-04-24T01:11:23.096Z,5.2
2016-04-24T01:11:31.553Z,5.1
2016-04-24T01:11:41.569Z,5.2
2016-04-24T01:11:51.569Z,5.3
2016-04-24T01:12:01.569Z,5.2
2016-04-24T01:12:11.569Z,5.3
2016-04-24T01:12:21.569Z,5.2
2016-04-24T01:12:31.571Z,5.2
2016-04-24T01:12:41.571Z,5.2
2016-04-24T01:12:51.571Z,5.2
2016-04-24T01:13:01.571Z,5.2
2016-04-24T01:13:11.571Z,5.2
2016-04-24T01:13:21.586Z,5.2
2016-04-24T01:13:31.573Z,5.2
2016-04-24T01:13:41.573Z,5.1
2016-04-24T01:13:51.573Z,5.1
2016-04-24T01:14:01.573Z,5.2
2016-04-24T01:14:11.588Z,5.1
2016-04-24T01:14:21.588Z,5.1
2016-04-24T01:14:31.592Z,5.1
2016-04-24T01:14:41.592Z,5.1
2016-04-24T01:14:51.592Z,5.1
2016-04-24T01:15:01.592Z,5.1
2016-04-24T01:15:11.592Z,5.1
2016-04-24T01:15:21.592Z,5.1
2016-04-24T01:15:31.594Z,5
2016-04-24T01:15:41.594Z,5.1
2016-04-24T01:15:51.594Z,5.1
2016-04-24T01:16:01.594Z,5.1
2016-04-24T01:16:11.610Z,5.1
2016-04-24T01:16:22.422Z,5
2016-04-24T01:16:31.596Z,5.1
2016-04-24T01:16:41.612Z,5
2016-04-24T01:16:51.596Z,5
2016-04-24T01:17:01.612Z,5.1
2016-04-24T01:17:11.612Z,5
2016-04-24T01:17:21.612Z,5
2016-04-24T01:17:31.616Z,5.1
2016-04-24T01:17:41.616Z,5
2016-04-24T01:17:51.616Z,4.9
2016-04-24T01:18:01.616Z,5
2016-04-24T01:18:11.616Z,5
2016-04-24T01:18:21.616Z,5
2016-04-24T01:18:31.633Z,4.9
2016-04-24T01:18:41.618Z,5
2016-04-24T01:18:51.618Z,5
2016-04-24T01:19:01.618Z,5
2016-04-24T01:19:11.618Z,4.9
2016-04-24T01:19:21.633Z,5
2016-04-24T01:19:31.636Z,5
2016-04-24T01:19:41.621Z,4.9
2016-04-24T01:19:51.636Z,4.9
2016-04-24T01:20:01.636Z,5
2016-04-24T01:20:11.636Z,5
2016-04-24T01:20:21.652Z,4.9
2016-04-24T01:20:31.636Z,4.9
2016-04-24T01:20:41.639Z,4.9
2016-04-24T01:20:51.639Z,4.9
2016-04-24T01:21:01.639Z,4.9
2016-04-24T01:21:11.639Z,5
2016-04-24T01:21:22.452Z,5
2016-04-24T01:21:31.639Z,4.9
2016-04-24T01:21:41.641Z,5
2016-04-24T01:21:51.485Z,4.9
2016-04-24T01:22:01.657Z,4.9
2016-04-24T01:22:11.657Z,4.9
2016-04-24T01:22:21.985Z,4.9
2016-04-24T01:22:31.657Z,5
2016-04-24T01:22:41.660Z,5
2016-04-24T01:22:51.662Z,5
2016-04-24T01:23:01.959Z,4.9
2016-04-24T01:23:11.506Z,5
2016-04-24T01:23:21.506Z,5
2016-04-24T01:23:31.662Z,4.9
2016-04-24T01:23:41.648Z,4.9
2016-04-24T01:23:51.664Z,4.9
2016-04-24T01:24:01.664Z,5
2016-04-24T01:24:11.664Z,5
2016-04-24T01:24:21.664Z,5
2016-04-24T01:24:31.664Z,5
2016-04-24T01:24:41.667Z,5
2016-04-24T01:24:51.667Z,5
2016-04-24T01:25:01.667Z,4.9
2016-04-24T01:25:11.667Z,5
2016-04-24T01:25:21.667Z,4.9
2016-04-24T01:25:31.667Z,5
2016-04-24T01:25:41.670Z,4.9
2016-04-24T01:25:51.686Z,4.9
2016-04-24T01:26:01.670Z,4.9
2016-04-24T01:26:11.686Z,4.9
2016-04-24T01:26:21.670Z,4.9
2016-04-24T01:26:31.686Z,5
2016-04-24T01:26:41.688Z,5
2016-04-24T01:26:51.688Z,4.9
2016-04-24T01:27:01.688Z,5
2016-04-24T01:27:11.688Z,4.9
2016-04-24T01:27:21.688Z,5
2016-04-24T01:27:31.688Z,5
2016-04-24T01:27:41.692Z,5
2016-04-24T01:27:51.692Z,5
2016-04-24T01:28:01.692Z,5
2016-04-24T01:28:11.707Z,5
2016-04-24T01:28:21.692Z,5
2016-04-24T01:28:31.692Z,4.9
2016-04-24T01:28:41.694Z,5
2016-04-24T01:28:51.694Z,5
2016-04-24T01:29:01.694Z,4.9
2016-04-24T01:29:11.694Z,5
2016-04-24T01:29:21.694Z,4.9
2016-04-24T01:29:31.709Z,5
2016-04-24T01:29:41.697Z,5
2016-04-24T01:29:51.712Z,5
2016-04-24T01:30:01.712Z,5
2016-04-24T01:30:11.712Z,5
2016-04-24T01:30:21.712Z,5
2016-04-24T01:30:31.712Z,4.9
2016-04-24T01:30:41.715Z,5
2016-04-24T01:30:51.715Z,5
2016-04-24T01:31:01.715Z,4.9
2016-04-24T01:31:11.715Z,4.9
2016-04-24T01:31:22.137Z,5
2016-04-24T01:31:31.575Z,5
2016-04-24T01:31:41.717Z,4.9
2016-04-24T01:31:51.717Z,5
2016-04-24T01:32:01.717Z,5
2016-04-24T01:32:11.733Z,5
2016-04-24T01:32:21.733Z,5
2016-04-24T01:32:31.733Z,4.9
2016-04-24T01:32:41.736Z,5
2016-04-24T01:32:51.736Z,4.9
2016-04-24T01:33:01.736Z,4.9
2016-04-24T01:33:11.736Z,5
2016-04-24T01:33:21.736Z,5
2016-04-24T01:33:31.736Z,5
2016-04-24T01:33:41.738Z,4.9
2016-04-24T01:33:51.738Z,4.9
2016-04-24T01:34:01.738Z,4.9
2016-04-24T01:34:11.738Z,5
2016-04-24T01:34:21.754Z,5
2016-04-24T01:34:31.738Z,5
2016-04-24T01:34:41.741Z,5
2016-04-24T01:34:51.741Z,5
2016-04-24T01:35:01.757Z,5
2016-04-24T01:35:11.741Z,5
2016-04-24T01:35:21.741Z,5
2016-04-24T01:35:31.757Z,4.9
2016-04-24T01:35:41.744Z,4.9
2016-04-24T01:35:51.760Z,5
2016-04-24T01:36:01.760Z,4.9
2016-04-24T01:36:11.760Z,4.9
2016-04-24T01:36:21.760Z,4.9
2016-04-24T01:36:33.153Z,4.9
2016-04-24T01:36:43.528Z,5
2016-04-24T01:36:53.497Z,4.9
2016-04-24T01:37:03.497Z,4.9
2016-04-24T01:37:14.809Z,4.9
2016-04-24T01:37:23.388Z,4.9
2016-04-24T01:37:33.561Z,4.9
2016-04-24T01:37:43.358Z,4.9
2016-04-24T01:37:53.499Z,4.9
2016-04-24T01:38:04.405Z,5
2016-04-24T01:38:13.515Z,4.9
2016-04-24T01:38:23.499Z,4.9
2016-04-24T01:38:33.518Z,4.9
2016-04-24T01:38:43.502Z,4.9
2016-04-24T01:38:53.502Z,4.8
2016-04-24T01:39:03.502Z,4.8
2016-04-24T01:39:13.502Z,4.9
2016-04-24T01:39:23.502Z,4.9
2016-04-24T01:39:33.520Z,4.8
2016-04-24T01:39:43.520Z,4.8
2016-04-24T01:39:53.520Z,4.8
2016-04-24T01:40:03.520Z,4.9
2016-04-24T01:40:13.520Z,4.9
2016-04-24T01:40:23.520Z,4.9
2016-04-24T01:40:33.523Z,4.9
2016-04-24T01:40:43.523Z,4.9
2016-04-24T01:40:53.523Z,4.9
2016-04-24T01:41:03.523Z,4.9
2016-04-24T01:41:13.523Z,4.9
2016-04-24T01:41:23.523Z,4.8
2016-04-24T01:41:33.526Z,4.9
2016-04-24T01:41:43.526Z,4.8
2016-04-24T01:41:53.526Z,4.9
2016-04-24T01:42:03.526Z,4.9
2016-04-24T01:42:13.526Z,4.8
2016-04-24T01:42:23.526Z,4.8
2016-04-24T01:42:33.528Z,4.9
2016-04-24T01:42:43.543Z,4.8
2016-04-24T01:42:53.543Z,4.8
2016-04-24T01:43:03.543Z,4.8
2016-04-24T01:43:13.543Z,4.8
2016-04-24T01:43:23.543Z,4.9
2016-04-24T01:43:33.547Z,4.9
2016-04-24T01:43:43.547Z,4.8
2016-04-24T01:43:53.547Z,4.9
2016-04-24T01:44:03.547Z,4.8
2016-04-24T01:44:13.547Z,4.8
2016-04-24T01:44:23.547Z,4.8
2016-04-24T01:44:33.549Z,4.9
2016-04-24T01:44:43.549Z,4.8
2016-04-24T01:44:53.549Z,4.9
2016-04-24T01:45:03.549Z,4.9
2016-04-24T01:45:13.565Z,4.8
2016-04-24T01:45:23.612Z,4.8
2016-04-24T01:45:33.552Z,4.9
2016-04-24T01:45:43.568Z,4.8
2016-04-24T01:45:53.568Z,4.8
2016-04-24T01:46:03.568Z,4.9
2016-04-24T01:46:13.568Z,4.8
2016-04-24T01:46:23.568Z,4.9
2016-04-24T01:46:33.571Z,4.8
2016-04-24T01:46:43.571Z,4.9
2016-04-24T01:46:53.571Z,4.8
2016-04-24T01:47:03.571Z,4.9
2016-04-24T01:47:13.571Z,4.9
2016-04-24T01:47:23.571Z,4.8
2016-04-24T01:47:33.573Z,4.9
2016-04-24T01:47:43.573Z,4.8
2016-04-24T01:47:53.573Z,4.9
2016-04-24T01:48:03.573Z,4.7
2016-04-24T01:48:13.573Z,4.8
2016-04-24T01:48:23.573Z,4.8
2016-04-24T01:48:33.576Z,4.8
2016-04-24T01:48:43.576Z,4.8
2016-04-24T01:48:53.576Z,4.9
2016-04-24T01:49:03.591Z,4.8
2016-04-24T01:49:13.591Z,4.8
2016-04-24T01:49:23.591Z,4.8
2016-04-24T01:49:33.593Z,4.8
2016-04-24T01:49:43.593Z,4.8
2016-04-24T01:49:53.593Z,4.8
2016-04-24T01:50:03.593Z,4.8
2016-04-24T01:50:13.593Z,4.8
2016-04-24T01:50:23.593Z,4.8
2016-04-24T01:50:33.612Z,4.9
2016-04-24T01:50:43.596Z,4.8
2016-04-24T01:50:53.596Z,4.9
2016-04-24T01:51:03.612Z,4.8
2016-04-24T01:51:13.596Z,4.7
2016-04-24T01:51:23.596Z,4.9
2016-04-24T01:51:33.615Z,4.8
2016-04-24T01:51:43.599Z,4.8
2016-04-24T01:51:53.599Z,4.7
2016-04-24T01:52:03.615Z,4.8
2016-04-24T01:52:13.881Z,4.8
2016-04-24T01:52:23.459Z,4.7
2016-04-24T01:52:33.618Z,4.8
2016-04-24T01:52:44.431Z,4.8
2016-04-24T01:52:53.618Z,4.7
2016-04-24T01:53:03.618Z,4.7
2016-04-24T01:53:13.618Z,4.7
2016-04-24T01:53:23.618Z,4.8
2016-04-24T01:53:33.654Z,4.7
2016-04-24T01:53:43.654Z,4.7
2016-04-24T01:53:53.654Z,4.7
2016-04-24T01:54:03.654Z,4.7
2016-04-24T01:54:13.654Z,4.7
2016-04-24T01:54:23.654Z,4.7
2016-04-24T01:54:33.697Z,4.8
2016-04-24T01:54:43.697Z,4.7
2016-04-24T01:54:53.697Z,4.7
2016-04-24T01:55:03.697Z,4.7
2016-04-24T01:55:13.713Z,4.7
2016-04-24T01:55:23.697Z,4.8
2016-04-24T01:55:33.740Z,4.7
2016-04-24T01:55:43.756Z,4.7
2016-04-24T01:55:53.756Z,4.7
2016-04-24T01:56:03.756Z,4.7
2016-04-24T01:56:13.756Z,4.7
2016-04-24T01:56:23.756Z,4.6
2016-04-24T01:56:33.799Z,4.7
2016-04-24T01:56:43.799Z,4.7
2016-04-24T01:56:53.799Z,4.7
2016-04-24T01:57:03.799Z,4.7
2016-04-24T01:57:13.799Z,4.6
2016-04-24T01:57:23.799Z,4.6
2016-04-24T01:57:33.843Z,4.7
2016-04-24T01:57:43.858Z,4.6
2016-04-24T01:57:53.843Z,4.6
2016-04-24T01:58:03.843Z,4.6
2016-04-24T01:58:13.858Z,4.7
2016-04-24T01:58:23.858Z,4.6
2016-04-24T01:58:33.878Z,4.6
2016-04-24T01:58:43.863Z,4.6
2016-04-24T01:58:53.878Z,4.7
2016-04-24T01:59:03.878Z,4.7
2016-04-24T01:59:13.878Z,4.6
2016-04-24T01:59:23.878Z,4.6
2016-04-24T01:59:33.912Z,4.6
2016-04-24T01:59:43.896Z,4.6
2016-04-24T01:59:53.896Z,4.6
2016-04-24T02:00:03.896Z,4.6
2016-04-24T02:00:13.896Z,4.6
2016-04-24T02:00:23.896Z,4.6
2016-04-24T02:00:33.913Z,4.6
2016-04-24T02:00:43.913Z,4.5
2016-04-24T02:00:53.913Z,4.6
2016-04-24T02:01:03.929Z,4.6
2016-04-24T02:01:13.929Z,4.6
2016-04-24T02:01:23.929Z,4.5
2016-04-24T02:01:33.947Z,4.6
2016-04-24T02:01:43.947Z,4.5
2016-04-24T02:01:53.931Z,4.5
2016-04-24T02:02:03.947Z,4.5
2016-04-24T02:02:13.947Z,4.5
2016-04-24T02:02:23.947Z,4.5
2016-04-24T02:02:33.964Z,4.5
2016-04-24T02:02:43.964Z,4.5
2016-04-24T02:02:53.964Z,4.5
2016-04-24T02:03:03.964Z,4.5
2016-04-24T02:03:13.964Z,4.6
2016-04-24T02:03:23.964Z,4.5
2016-04-24T02:03:33.973Z,4.5
2016-04-24T02:03:43.973Z,4.5
2016-04-24T02:03:53.973Z,4.5
2016-04-24T02:04:03.973Z,4.5
2016-04-24T02:04:13.973Z,4.5
2016-04-24T02:04:23.973Z,4.5
2016-04-24T02:04:33.982Z,4.5
2016-04-24T02:04:43.982Z,4.6
2016-04-24T02:04:53.998Z,4.6
2016-04-24T02:05:03.982Z,4.5
2016-04-24T02:05:13.998Z,4.5
2016-04-24T02:05:23.998Z,4.5
2016-04-24T02:05:34.005Z,4.5
2016-04-24T02:05:44.005Z,4.5
2016-04-24T02:05:54.005Z,4.4
2016-04-24T02:06:04.005Z,4.5
2016-04-24T02:06:14.005Z,4.5
2016-04-24T02:06:24.036Z,4.5
2016-04-24T02:06:34.028Z,4.6
2016-04-24T02:06:44.013Z,4.6
2016-04-24T02:06:54.013Z,4.5
2016-04-24T02:07:04.028Z,4.5
2016-04-24T02:07:14.028Z,4.5
2016-04-24T02:07:23.950Z,4.5
2016-04-24T02:07:34.036Z,4.5
2016-04-24T02:07:43.880Z,4.5
2016-04-24T02:07:54.817Z,4.5
2016-04-24T02:08:04.427Z,4.6
2016-04-24T02:08:14.099Z,4.5
2016-04-24T02:08:24.036Z,4.4
2016-04-24T02:08:34.041Z,4.5
2016-04-24T02:08:43.885Z,4.5
2016-04-24T02:08:54.057Z,4.5
2016-04-24T02:09:04.041Z,4.5
2016-04-24T02:09:14.041Z,4.5
2016-04-24T02:09:24.041Z,4.5
2016-04-24T02:09:34.046Z,4.5
2016-04-24T02:09:44.046Z,4.5
2016-04-24T02:09:54.046Z,4.5
2016-04-24T02:10:04.046Z,4.5
2016-04-24T02:10:14.046Z,4.5
2016-04-24T02:10:24.046Z,4.5
2016-04-24T02:10:34.046Z,4.5
2016-04-24T02:10:44.051Z,4.5
2016-04-24T02:10:54.051Z,4.5
2016-04-24T02:11:04.067Z,4.5
2016-04-24T02:11:14.051Z,4.4
2016-04-24T02:11:24.067Z,4.6
2016-04-24T02:11:34.067Z,4.4
2016-04-24T02:11:44.071Z,4.5
2016-04-24T02:11:54.071Z,4.5
2016-04-24T02:12:04.071Z,4.5
2016-04-24T02:12:14.071Z,4.5
2016-04-24T02:12:24.071Z,4.5
2016-04-24T02:12:34.071Z,4.5
2016-04-24T02:12:44.076Z,4.6
2016-04-24T02:12:54.076Z,4.5
2016-04-24T02:13:04.076Z,4.6
2016-04-24T02:13:14.076Z,4.5
2016-04-24T02:13:24.076Z,4.5
2016-04-24T02:13:34.091Z,4.5
2016-04-24T02:13:44.080Z,4.6
2016-04-24T02:13:54.080Z,4.5
2016-04-24T02:14:04.095Z,4.5
2016-04-24T02:14:14.095Z,4.6
2016-04-24T02:14:24.095Z,4.5
2016-04-24T02:14:34.095Z,4.4
2016-04-24T02:14:44.098Z,4.5
2016-04-24T02:14:54.098Z,4.5
2016-04-24T02:15:04.098Z,4.5
2016-04-24T02:15:14.114Z,4.5
2016-04-24T02:15:24.098Z,4.5
2016-04-24T02:15:34.098Z,4.5
2016-04-24T02:15:44.101Z,4.5
2016-04-24T02:15:54.101Z,4.5
2016-04-24T02:16:04.101Z,4.4
2016-04-24T02:16:14.117Z,4.5
2016-04-24T02:16:24.101Z,4.5
2016-04-24T02:16:34.101Z,4.4
2016-04-24T02:16:44.104Z,4.5
2016-04-24T02:16:54.104Z,4.4
2016-04-24T02:17:04.104Z,4.6
2016-04-24T02:17:14.104Z,4.5
2016-04-24T02:17:24.104Z,4.6
2016-04-24T02:17:34.120Z,4.6
2016-04-24T02:17:44.123Z,4.6
2016-04-24T02:17:54.123Z,4.6
2016-04-24T02:18:04.123Z,4.5
2016-04-24T02:18:14.123Z,4.5
2016-04-24T02:18:24.123Z,4.5
2016-04-24T02:18:34.123Z,4.5
2016-04-24T02:18:44.125Z,4.5